createdAt,value
2023-03-13T00:01:44.721Z,99699.00
2023-03-13T00:04:12.768Z,99673.84
2023-03-13T00:06:41.386Z,99685.72
2023-03-13T00:09:10.397Z,99668.72
2023-03-13T00:11:37.521Z,99681.03
2023-03-13T00:14:05.149Z,99663.91
2023-03-13T00:16:31.901Z,99676.34
2023-03-13T00:18:59.069Z,99667.19
2023-03-13T00:21:27.754Z,99666.19
2023-03-13T00:23:54.880Z,99663.31
2023-03-13T00:26:23.758Z,99670.50
2023-03-13T00:28:51.451Z,99654.09
2023-03-13T00:31:19.608Z,99635.16
2023-03-13T00:33:48.765Z,99644.56
2023-03-13T00:36:18.209Z,99612.66
2023-03-13T00:38:45.274Z,99617.44
2023-03-13T00:41:17.760Z,99645.69
2023-03-13T00:43:44.813Z,99639.91
2023-03-13T00:46:12.669Z,99641.69
2023-03-13T00:48:39.183Z,99624.28
2023-03-13T00:51:06.947Z,99624.50
2023-03-13T00:53:33.929Z,99601.78
2023-03-13T00:56:03.224Z,99620.16
2023-03-13T00:58:31.271Z,99626.88
2023-03-13T01:00:57.886Z,99596.03
2023-03-13T01:03:25.771Z,99593.59
2023-03-13T01:06:00.151Z,99581.69
2023-03-13T01:08:27.815Z,99537.63
2023-03-13T01:10:59.233Z,99582.94
2023-03-13T01:13:26.050Z,99574.81
2023-03-13T01:15:52.752Z,99552.63
2023-03-13T01:18:19.451Z,99562.34
2023-03-13T01:20:46.297Z,99558.44
2023-03-13T01:23:13.079Z,99563.09
2023-03-13T01:25:40.623Z,99540.44
2023-03-13T01:28:07.127Z,99519.56
2023-03-13T01:30:34.070Z,99543.56
2023-03-13T01:33:02.142Z,99522.84
2023-03-13T01:35:29.018Z,99514.03
2023-03-13T01:37:55.620Z,99523.06
2023-03-13T01:40:22.204Z,99491.25
2023-03-13T01:42:53.688Z,99506.03
2023-03-13T01:45:51.422Z,99491.00
2023-03-13T01:48:18.102Z,99485.31
2023-03-13T01:50:44.661Z,99455.63
2023-03-13T01:53:11.673Z,99468.91
2023-03-13T01:55:38.538Z,99451.13
2023-03-13T01:58:05.335Z,99479.75
2023-03-13T02:00:34.158Z,99457.97
2023-03-13T02:03:06.976Z,99451.28
2023-03-13T02:05:33.793Z,99426.56
2023-03-13T02:08:24.293Z,99442.69
2023-03-13T02:10:54.511Z,99415.13
2023-03-13T02:13:21.072Z,99421.19
2023-03-13T02:15:48.108Z,99402.00
2023-03-13T02:18:16.624Z,99407.94
2023-03-13T02:20:43.662Z,99404.63
2023-03-13T02:23:25.632Z,99395.09
2023-03-13T02:25:53.878Z,99381.00
2023-03-13T02:28:25.938Z,99377.69
2023-03-13T02:30:55.812Z,99374.03
2023-03-13T02:33:23.072Z,99347.44
2023-03-13T02:35:49.902Z,99394.66
2023-03-13T02:38:20.565Z,99331.69
2023-03-13T02:40:48.372Z,99356.97
2023-03-13T02:43:22.685Z,99324.09
2023-03-13T02:46:08.071Z,99344.81
2023-03-13T02:48:44.100Z,99356.81
2023-03-13T02:51:25.775Z,99327.81
2023-03-13T02:53:54.267Z,99331.97
2023-03-13T02:56:23.254Z,99321.63
2023-03-13T02:58:50.722Z,99297.34
2023-03-13T03:01:17.495Z,99305.31
2023-03-13T03:03:44.093Z,99273.56
2023-03-13T03:06:10.684Z,99247.97
2023-03-13T03:08:41.299Z,99278.22
2023-03-13T03:11:08.115Z,99286.22
2023-03-13T03:13:34.638Z,99268.94
2023-03-13T03:16:06.786Z,99263.09
2023-03-13T03:18:34.681Z,99279.00
2023-03-13T03:21:01.477Z,99259.16
2023-03-13T03:23:28.375Z,99270.41
2023-03-13T03:25:54.935Z,99260.69
2023-03-13T03:28:21.417Z,99258.41
2023-03-13T03:30:47.985Z,99142.44
2023-03-13T03:33:14.589Z,99240.41
2023-03-13T03:35:41.155Z,99253.94
2023-03-13T03:38:07.659Z,99246.47
2023-03-13T03:40:34.248Z,99271.97
2023-03-13T03:43:00.819Z,99238.09
2023-03-13T03:45:27.587Z,99252.28
2023-03-13T03:47:54.113Z,99233.63
2023-03-13T03:50:20.692Z,99247.72
2023-03-13T03:52:47.212Z,99112.59
2023-03-13T03:55:13.792Z,99200.25
2023-03-13T03:57:40.324Z,99227.28
2023-03-13T04:00:08.024Z,99235.59
2023-03-13T04:02:34.970Z,99233.69
2023-03-13T04:05:01.597Z,99224.88
2023-03-13T04:07:28.403Z,99192.78
2023-03-13T04:09:55.151Z,99173.25
2023-03-13T04:12:21.728Z,99213.69
2023-03-13T04:14:48.224Z,99208.44
2023-03-13T04:17:15.289Z,99194.13
2023-03-13T04:19:41.865Z,99166.03
2023-03-13T04:22:08.550Z,99151.66
2023-03-13T04:24:35.145Z,99210.03
2023-03-13T04:27:03.638Z,99193.03
2023-03-13T04:29:30.189Z,99189.25
2023-03-13T04:31:56.751Z,99199.38
2023-03-13T04:34:23.406Z,99203.34
2023-03-13T04:36:49.939Z,99191.56
2023-03-13T04:39:16.471Z,99201.59
2023-03-13T04:41:43.035Z,99160.69
2023-03-13T04:44:09.946Z,99199.47
2023-03-13T04:46:36.807Z,99163.34
2023-03-13T04:49:03.435Z,99153.81
2023-03-13T04:51:30.247Z,99170.34
2023-03-13T04:53:56.766Z,99159.59
2023-03-13T04:56:41.676Z,99146.44
2023-03-13T04:59:10.906Z,99153.63
2023-03-13T05:01:37.461Z,99151.59
2023-03-13T05:04:04.595Z,99160.06
2023-03-13T05:06:31.103Z,99181.38
2023-03-13T05:08:57.893Z,99153.63
2023-03-13T05:11:24.784Z,99166.63
2023-03-13T05:13:51.341Z,99172.47
2023-03-13T05:16:17.856Z,99184.66
2023-03-13T05:18:44.464Z,99150.06
2023-03-13T05:21:11.131Z,99139.84
2023-03-13T05:23:37.792Z,99147.53
2023-03-13T05:26:04.818Z,99148.97
2023-03-13T05:28:31.448Z,99114.25
2023-03-13T05:30:58.158Z,99130.88
2023-03-13T05:33:24.765Z,99155.69
2023-03-13T05:35:51.369Z,99127.50
2023-03-13T05:38:18.306Z,99151.84
2023-03-13T05:40:44.845Z,99133.06
2023-03-13T05:43:11.372Z,99121.63
2023-03-13T05:45:37.891Z,99106.13
2023-03-13T05:48:04.626Z,99136.25
2023-03-13T05:50:31.188Z,99094.41
2023-03-13T05:52:57.775Z,99031.81
2023-03-13T05:55:24.308Z,99131.94
2023-03-13T05:57:50.851Z,99135.25
2023-03-13T06:00:18.037Z,99101.88
2023-03-13T06:02:44.890Z,99141.28
2023-03-13T06:05:11.597Z,99149.91
2023-03-13T06:07:38.263Z,99138.94
2023-03-13T06:10:05.539Z,99154.38
2023-03-13T06:12:32.087Z,99127.28
2023-03-13T06:14:58.657Z,99149.41
2023-03-13T06:17:25.603Z,99146.59
2023-03-13T06:19:52.338Z,99141.75
2023-03-13T06:22:19.044Z,99152.59
2023-03-13T06:24:46.880Z,99140.94
2023-03-13T06:27:13.567Z,99139.25
2023-03-13T06:29:40.223Z,99143.44
2023-03-13T06:32:07.230Z,99126.50
2023-03-13T06:34:34.174Z,99138.28
2023-03-13T06:37:00.915Z,99090.09
2023-03-13T06:39:27.527Z,99129.28
2023-03-13T06:41:54.468Z,99133.78
2023-03-13T06:44:21.340Z,99115.53
2023-03-13T06:46:47.978Z,99115.00
2023-03-13T06:49:14.575Z,99111.53
2023-03-13T06:51:41.123Z,99112.00
2023-03-13T06:54:07.691Z,99117.03
2023-03-13T06:56:34.271Z,99086.13
2023-03-13T06:59:00.838Z,99075.13
2023-03-13T07:01:27.459Z,99135.41
2023-03-13T07:03:54.066Z,99119.47
2023-03-13T07:06:20.650Z,99105.66
2023-03-13T07:08:47.335Z,99135.06
2023-03-13T07:11:16.149Z,99066.31
2023-03-13T07:13:42.673Z,99120.31
2023-03-13T07:16:11.824Z,99152.63
2023-03-13T07:18:39.386Z,99081.97
2023-03-13T07:21:06.137Z,99149.56
2023-03-13T07:23:34.537Z,99145.31
2023-03-13T07:26:06.388Z,99136.88
2023-03-13T07:28:34.440Z,99090.38
2023-03-13T07:31:18.503Z,99146.56
2023-03-13T07:33:45.411Z,99121.50
2023-03-13T07:36:13.998Z,99095.75
2023-03-13T07:38:40.589Z,99125.06
2023-03-13T07:41:07.197Z,99110.97
2023-03-13T07:43:33.856Z,99105.97
2023-03-13T07:46:02.550Z,99116.69
2023-03-13T07:48:31.479Z,99130.09
2023-03-13T07:50:58.861Z,99100.78
2023-03-13T07:53:25.606Z,99086.19
2023-03-13T07:55:56.916Z,99106.38
2023-03-13T07:58:24.718Z,99075.31
2023-03-13T08:00:52.096Z,99082.25
2023-03-13T08:03:19.347Z,99073.16
2023-03-13T08:05:46.086Z,99051.25
2023-03-13T08:08:12.660Z,99059.56
2023-03-13T08:10:39.237Z,99038.19
2023-03-13T08:13:06.006Z,99053.97
2023-03-13T08:15:32.585Z,99083.94
2023-03-13T08:17:59.162Z,99064.19
2023-03-13T08:20:26.003Z,99078.91
2023-03-13T08:22:52.651Z,99087.56
2023-03-13T08:25:19.238Z,99061.41
2023-03-13T08:27:45.732Z,99075.88
2023-03-13T08:30:12.887Z,99081.09
2023-03-13T08:32:39.547Z,99035.06
2023-03-13T08:35:06.608Z,99038.63
2023-03-13T08:37:34.274Z,99051.31
2023-03-13T08:40:01.329Z,99076.19
2023-03-13T08:42:27.926Z,99065.56
2023-03-13T08:44:54.575Z,99060.91
2023-03-13T08:47:21.089Z,99040.31
2023-03-13T08:49:47.561Z,99077.56
2023-03-13T08:52:14.203Z,99077.91
2023-03-13T08:54:40.848Z,99043.78
2023-03-13T08:57:07.394Z,99062.94
2023-03-13T08:59:34.134Z,99084.91
2023-03-13T09:02:00.906Z,99084.09
2023-03-13T09:04:27.420Z,99088.97
2023-03-13T09:06:53.936Z,99069.38
2023-03-13T09:09:20.619Z,99088.41
2023-03-13T09:11:47.129Z,99078.66
2023-03-13T09:14:13.772Z,99084.00
2023-03-13T09:16:40.344Z,99075.44
2023-03-13T09:19:06.982Z,99026.09
2023-03-13T09:21:35.003Z,99035.59
2023-03-13T09:24:01.998Z,99077.63
2023-03-13T09:26:28.620Z,99053.63
2023-03-13T09:28:55.607Z,99083.72
2023-03-13T09:31:24.585Z,99074.06
2023-03-13T09:33:51.484Z,99024.63
2023-03-13T09:36:21.527Z,99081.25
2023-03-13T09:38:52.735Z,99079.13
2023-03-13T09:41:24.277Z,99068.78
2023-03-13T09:44:09.703Z,99058.41
2023-03-13T09:46:50.913Z,99056.69
2023-03-13T09:49:31.488Z,99042.63
2023-03-13T09:52:18.069Z,99046.88
2023-03-13T09:55:02.465Z,99035.50
2023-03-13T09:57:35.522Z,99051.75
2023-03-13T10:00:35.711Z,99045.75
2023-03-13T10:03:11.418Z,99041.91
2023-03-13T10:05:40.014Z,99033.09
2023-03-13T10:08:15.921Z,98980.38
2023-03-13T10:11:12.420Z,98977.81
2023-03-13T10:13:51.597Z,99034.00
2023-03-13T10:16:22.948Z,99018.78
2023-03-13T10:18:54.611Z,98903.38
2023-03-13T10:21:23.600Z,99008.75
2023-03-13T10:24:03.112Z,98996.56
2023-03-13T10:26:33.023Z,99006.63
2023-03-13T10:29:11.661Z,99017.47
2023-03-13T10:31:39.551Z,99018.91
2023-03-13T10:34:10.913Z,99014.00
2023-03-13T10:36:48.772Z,99008.25
2023-03-13T10:39:21.296Z,98969.78
2023-03-13T10:41:52.011Z,98984.53
2023-03-13T10:44:21.451Z,98992.72
2023-03-13T10:46:50.619Z,98977.03
2023-03-13T10:49:19.932Z,98976.94
2023-03-13T10:51:48.974Z,98991.63
2023-03-13T10:54:22.021Z,98964.50
2023-03-13T10:56:49.852Z,99014.81
2023-03-13T10:59:25.107Z,98864.94
2023-03-13T11:01:53.060Z,98939.88
2023-03-13T11:04:37.656Z,98961.78
2023-03-13T11:07:09.898Z,98949.72
2023-03-13T11:09:36.409Z,98926.44
2023-03-13T11:12:12.162Z,98950.59
2023-03-13T11:14:38.835Z,98959.03
2023-03-13T11:17:23.800Z,98935.41
2023-03-13T11:20:06.255Z,98939.19
2023-03-13T11:22:41.023Z,98922.44
2023-03-13T11:25:28.982Z,98930.72
2023-03-13T11:27:58.666Z,98929.88
2023-03-13T11:30:28.435Z,98926.94
2023-03-13T11:32:56.685Z,98883.00
2023-03-13T11:35:42.197Z,98927.22
2023-03-13T11:38:20.085Z,98917.34
2023-03-13T11:40:54.698Z,98898.38
2023-03-13T11:43:26.077Z,98909.09
2023-03-13T11:46:04.120Z,98904.25
2023-03-13T11:48:40.549Z,98915.81
2023-03-13T11:51:20.934Z,98900.84
2023-03-13T11:53:59.443Z,98888.88
2023-03-13T11:56:41.516Z,98906.97
2023-03-13T11:59:28.432Z,98880.38
2023-03-13T12:01:59.682Z,98867.97
2023-03-13T12:04:37.459Z,98875.94
2023-03-13T12:07:28.500Z,98866.19
2023-03-13T12:10:05.168Z,98879.44
2023-03-13T12:12:40.578Z,98872.22
2023-03-13T12:15:28.551Z,98860.59
2023-03-13T12:18:00.264Z,98822.25
2023-03-13T12:20:47.391Z,98810.22
2023-03-13T12:23:29.103Z,98831.06
2023-03-13T12:26:00.488Z,98810.50
2023-03-13T12:28:36.431Z,98835.72
2023-03-13T12:31:12.777Z,98832.28
2023-03-13T12:34:04.557Z,98859.97
2023-03-13T12:36:40.699Z,98816.50
2023-03-13T12:39:35.874Z,98830.16
2023-03-13T12:42:08.487Z,98824.84
2023-03-13T12:44:35.678Z,98819.19
2023-03-13T12:47:25.385Z,98781.91
2023-03-13T12:49:55.883Z,98796.91
2023-03-13T12:52:50.964Z,98796.72
2023-03-13T12:55:34.919Z,98813.00
2023-03-13T12:58:01.489Z,98808.56
2023-03-13T13:00:30.436Z,98806.47
2023-03-13T13:03:36.159Z,98778.75
2023-03-13T13:06:07.060Z,98789.31
2023-03-13T13:08:47.483Z,98787.84
2023-03-13T13:11:39.212Z,98790.34
2023-03-13T13:14:11.622Z,98776.91
2023-03-13T13:16:43.051Z,98777.50
2023-03-13T13:19:24.853Z,98772.38
2023-03-13T13:22:29.173Z,98788.47
2023-03-13T13:24:58.209Z,98771.44
2023-03-13T13:27:37.107Z,98764.44
2023-03-13T13:30:18.997Z,98796.28
2023-03-13T13:32:56.082Z,98778.75
2023-03-13T13:35:30.094Z,98763.63
2023-03-13T13:38:18.672Z,98775.00
2023-03-13T13:41:05.330Z,98764.75
2023-03-13T13:43:45.781Z,98717.50
2023-03-13T13:46:31.417Z,98758.47
2023-03-13T13:49:07.626Z,98738.09
2023-03-13T13:51:38.266Z,98686.72
2023-03-13T13:54:33.310Z,98736.53
2023-03-13T13:57:09.385Z,98743.81
2023-03-13T13:59:41.077Z,98748.13
2023-03-13T14:02:09.904Z,98751.84
2023-03-13T14:04:43.700Z,98747.34
2023-03-13T14:07:16.436Z,98743.88
2023-03-13T14:09:42.923Z,98759.34
2023-03-13T14:12:25.519Z,98734.13
2023-03-13T14:15:19.179Z,98743.31
2023-03-13T14:17:52.012Z,98691.03
2023-03-13T14:20:27.298Z,98717.44
2023-03-13T14:22:55.301Z,98681.84
2023-03-13T14:25:24.032Z,98682.66
2023-03-13T14:27:51.748Z,98709.88
2023-03-13T14:30:20.110Z,98715.72
2023-03-13T14:32:47.112Z,98710.09
2023-03-13T14:35:17.083Z,98690.78
2023-03-13T14:37:46.137Z,98702.38
2023-03-13T14:40:20.002Z,98695.00
2023-03-13T14:42:49.433Z,98687.09
2023-03-13T14:45:21.501Z,98672.19
2023-03-13T14:47:50.756Z,98667.13
2023-03-13T14:50:18.329Z,98586.06
2023-03-13T14:52:50.155Z,98588.97
2023-03-13T14:55:23.005Z,98559.25
2023-03-13T14:58:21.271Z,98657.59
2023-03-13T15:00:48.761Z,98651.63
2023-03-13T15:03:20.029Z,98647.97
2023-03-13T15:05:50.043Z,98655.66
2023-03-13T15:08:19.258Z,98650.44
2023-03-13T15:10:46.319Z,98640.19
2023-03-13T15:13:35.886Z,98625.25
2023-03-13T15:16:11.033Z,98635.19
2023-03-13T15:18:37.550Z,98622.91
2023-03-13T15:21:10.280Z,98621.19
2023-03-13T15:23:36.827Z,98577.47
2023-03-13T15:26:03.712Z,98600.50
2023-03-13T15:28:30.821Z,98620.41
2023-03-13T15:30:57.798Z,98629.06
2023-03-13T15:33:27.635Z,98558.47
2023-03-13T15:35:54.831Z,98594.66
2023-03-13T15:38:24.202Z,98592.91
2023-03-13T15:40:51.012Z,98601.44
2023-03-13T15:43:18.253Z,98591.91
2023-03-13T15:45:47.823Z,98618.38
2023-03-13T15:48:20.366Z,98563.41
2023-03-13T15:50:50.900Z,98568.53
2023-03-13T15:53:24.094Z,98573.19
2023-03-13T15:55:52.716Z,98572.50
2023-03-13T15:58:19.656Z,98561.44
2023-03-13T16:00:46.363Z,98505.50
2023-03-13T16:03:17.030Z,98532.59
2023-03-13T16:05:44.070Z,98562.66
2023-03-13T16:08:37.344Z,98543.59
2023-03-13T16:11:04.478Z,98572.28
2023-03-13T16:13:31.493Z,98536.28
2023-03-13T16:15:58.585Z,98511.75
2023-03-13T16:18:26.722Z,98492.34
2023-03-13T16:20:53.951Z,98523.75
2023-03-13T16:23:20.517Z,98539.13
2023-03-13T16:25:48.432Z,98500.38
2023-03-13T16:28:15.207Z,98524.31
2023-03-13T16:30:47.449Z,98521.41
2023-03-13T16:33:14.055Z,98522.34
2023-03-13T16:35:40.910Z,98505.75
2023-03-13T16:38:10.746Z,98499.94
2023-03-13T16:40:37.596Z,98311.09
2023-03-13T16:43:04.104Z,98525.53
2023-03-13T16:45:30.694Z,98522.22
2023-03-13T16:47:57.251Z,98492.28
2023-03-13T16:50:32.771Z,98470.69
2023-03-13T16:52:59.675Z,98496.75
2023-03-13T16:55:30.472Z,98495.09
2023-03-13T16:57:58.426Z,98468.84
2023-03-13T17:00:26.944Z,98501.22
2023-03-13T17:02:54.167Z,98487.63
2023-03-13T17:05:20.867Z,98500.56
2023-03-13T17:07:49.299Z,98463.50
2023-03-13T17:10:22.550Z,98496.09
2023-03-13T17:12:49.395Z,98473.44
2023-03-13T17:15:20.020Z,98482.66
2023-03-13T17:17:51.543Z,98493.19
2023-03-13T17:20:20.930Z,98503.47
2023-03-13T17:22:47.555Z,98505.53
2023-03-13T17:25:14.114Z,98491.16
2023-03-13T17:27:41.050Z,98452.88
2023-03-13T17:30:23.592Z,98510.66
2023-03-13T17:32:50.560Z,98491.13
2023-03-13T17:35:17.909Z,98515.44
2023-03-13T17:37:44.703Z,98475.88
2023-03-13T17:40:22.035Z,98511.31
2023-03-13T17:42:48.985Z,98475.91
2023-03-13T17:45:16.105Z,98523.63
2023-03-13T17:47:42.701Z,98519.13
2023-03-13T17:50:14.706Z,98511.53
2023-03-13T17:52:41.569Z,98499.53
2023-03-13T17:55:09.405Z,98487.44
2023-03-13T17:57:35.980Z,98494.22
2023-03-13T18:00:02.603Z,98489.47
2023-03-13T18:02:29.191Z,98518.31
2023-03-13T18:04:56.115Z,98517.25
2023-03-13T18:07:27.446Z,98520.34
2023-03-13T18:09:54.350Z,98497.28
2023-03-13T18:12:20.918Z,98494.03
2023-03-13T18:14:47.467Z,98480.84
2023-03-13T18:17:23.974Z,98485.78
2023-03-13T18:19:50.846Z,98487.38
2023-03-13T18:22:21.487Z,98488.25
2023-03-13T18:24:49.181Z,98466.25
2023-03-13T18:27:20.637Z,98458.19
2023-03-13T18:29:51.504Z,98476.69
2023-03-13T18:32:18.936Z,98434.78
2023-03-13T18:34:45.865Z,98442.16
2023-03-13T18:37:30.511Z,98471.81
2023-03-13T18:39:57.944Z,98472.56
2023-03-13T18:42:25.178Z,98468.25
2023-03-13T18:44:52.362Z,98470.97
2023-03-13T18:47:21.386Z,98457.41
2023-03-13T18:49:51.211Z,98445.03
2023-03-13T18:52:17.927Z,98441.75
2023-03-13T18:54:44.934Z,98480.03
2023-03-13T18:57:19.183Z,98474.03
2023-03-13T18:59:46.059Z,98482.69
2023-03-13T19:02:18.029Z,98465.81
2023-03-13T19:04:45.842Z,98503.47
2023-03-13T19:07:17.284Z,98505.34
2023-03-13T19:09:46.329Z,98492.44
2023-03-13T19:12:15.375Z,98482.84
2023-03-13T19:14:42.237Z,98457.38
2023-03-13T19:17:20.343Z,98465.56
2023-03-13T19:19:46.894Z,98502.53
2023-03-13T19:22:14.134Z,98480.16
2023-03-13T19:24:40.732Z,98455.53
2023-03-13T19:27:07.452Z,98496.78
2023-03-13T19:29:36.504Z,98463.72
2023-03-13T19:32:06.799Z,98477.41
2023-03-13T19:34:33.413Z,98483.66
2023-03-13T19:36:59.975Z,98478.84
2023-03-13T19:39:26.541Z,98482.66
2023-03-13T19:41:53.567Z,98485.53
2023-03-13T19:44:20.963Z,98440.25
2023-03-13T19:46:47.823Z,98462.44
2023-03-13T19:49:19.536Z,98458.63
2023-03-13T19:51:47.005Z,98453.41
2023-03-13T19:54:13.932Z,98446.91
2023-03-13T19:56:43.532Z,98427.56
2023-03-13T19:59:14.580Z,98440.16
2023-03-13T20:01:41.213Z,98426.28
2023-03-13T20:04:07.957Z,98409.44
2023-03-13T20:06:35.119Z,98403.34
2023-03-13T20:09:05.043Z,98419.72
2023-03-13T20:11:31.587Z,98390.09
2023-03-13T20:13:59.390Z,98372.34
2023-03-13T20:16:27.712Z,98408.22
2023-03-13T20:18:57.584Z,98416.94
2023-03-13T20:21:28.322Z,98417.38
2023-03-13T20:23:55.012Z,98419.06
2023-03-13T20:26:21.893Z,98422.81
2023-03-13T20:28:52.033Z,98419.31
2023-03-13T20:31:21.809Z,98413.47
2023-03-13T20:33:48.434Z,98423.53
2023-03-13T20:36:17.296Z,98431.25
2023-03-13T20:38:44.286Z,98409.41
2023-03-13T20:41:11.507Z,98440.28
2023-03-13T20:43:38.853Z,98431.22
2023-03-13T20:46:07.246Z,98422.19
2023-03-13T20:48:39.255Z,98428.91
2023-03-13T20:51:07.109Z,98391.66
2023-03-13T20:53:37.923Z,98423.25
2023-03-13T20:56:06.804Z,98402.66
2023-03-13T20:58:33.685Z,98430.84
2023-03-13T21:01:01.007Z,98424.28
2023-03-13T21:03:28.081Z,98418.50
2023-03-13T21:05:54.925Z,98411.16
2023-03-13T21:08:21.449Z,98391.56
2023-03-13T21:10:47.987Z,98413.59
2023-03-13T21:13:14.489Z,98397.75
2023-03-13T21:15:41.048Z,98398.03
2023-03-13T21:18:07.763Z,98388.94
2023-03-13T21:20:34.675Z,98374.19
2023-03-13T21:23:01.363Z,98344.31
2023-03-13T21:25:27.900Z,98406.91
2023-03-13T21:27:54.435Z,98377.59
2023-03-13T21:30:21.679Z,98394.38
2023-03-13T21:32:48.480Z,98403.63
2023-03-13T21:35:16.672Z,98405.00
2023-03-13T21:37:43.340Z,98412.31
2023-03-13T21:40:11.002Z,98354.63
2023-03-13T21:42:37.708Z,98375.13
2023-03-13T21:45:05.426Z,98347.00
2023-03-13T21:47:36.575Z,98335.56
2023-03-13T21:50:05.835Z,98352.09
2023-03-13T21:52:34.375Z,98322.59
2023-03-13T21:55:03.464Z,98338.00
2023-03-13T21:57:30.019Z,98323.50
2023-03-13T21:59:56.549Z,98319.44
2023-03-13T22:02:23.201Z,98338.53
2023-03-13T22:04:49.727Z,98329.59
2023-03-13T22:07:16.203Z,98342.66
2023-03-13T22:09:42.942Z,98378.75
2023-03-13T22:12:09.568Z,98367.72
2023-03-13T22:14:36.232Z,98354.22
2023-03-13T22:17:02.761Z,98305.44
2023-03-13T22:19:29.310Z,98354.84
2023-03-13T22:21:55.984Z,98353.03
2023-03-13T22:24:22.747Z,98387.50
2023-03-13T22:26:49.659Z,98402.22
2023-03-13T22:29:16.234Z,98397.09
2023-03-13T22:31:42.736Z,98400.13
2023-03-13T22:34:09.294Z,98417.28
2023-03-13T22:36:35.843Z,98427.19
2023-03-13T22:39:02.735Z,98395.28
2023-03-13T22:41:29.345Z,98444.41
2023-03-13T22:43:55.927Z,98446.41
2023-03-13T22:46:22.540Z,98413.13
2023-03-13T22:48:49.054Z,98436.44
2023-03-13T22:51:16.645Z,98437.13
2023-03-13T22:53:43.671Z,98389.47
2023-03-13T22:56:11.843Z,98424.56
2023-03-13T22:58:39.662Z,98411.53
2023-03-13T23:01:14.597Z,98431.00
2023-03-13T23:03:41.378Z,98397.78
2023-03-13T23:06:09.893Z,98404.34
2023-03-13T23:08:36.944Z,98374.63
2023-03-13T23:11:04.480Z,98359.63
2023-03-13T23:13:31.959Z,98388.28
2023-03-13T23:15:58.870Z,98382.88
2023-03-13T23:18:27.434Z,98354.84
2023-03-13T23:20:54.287Z,98334.09
2023-03-13T23:23:21.265Z,98339.75
2023-03-13T23:25:48.325Z,98330.03
2023-03-13T23:28:15.030Z,98347.66
2023-03-13T23:30:41.504Z,98355.22
2023-03-13T23:33:08.241Z,98353.66
2023-03-13T23:35:37.061Z,98318.88
2023-03-13T23:38:03.787Z,98315.31
2023-03-13T23:40:30.332Z,98332.44
2023-03-13T23:42:57.486Z,98306.06
2023-03-13T23:45:24.282Z,98355.81
2023-03-13T23:47:52.585Z,98348.53
2023-03-13T23:50:19.199Z,98332.06
2023-03-13T23:52:45.774Z,98321.31
2023-03-13T23:55:12.392Z,98354.09
2023-03-13T23:57:39.356Z,98318.88
